Taylor Fork

This weather station provides wind speed, gust or max wind speed, and wind direction at 9460 ft. near Pika Point above Sunlight Basin.  

This data can be used with temperature and precipitation data from the Carrot Basin SNOTEL site. If the data below is not displayed or up to date, view data here.

This weather station was purchased by the Friends of the Avalanche Center.

Elevation
9460ft
Jump to table bottom
Date Time Temperature
deg F
RH, % Wind Speed Wind Gust Wind Direction
02/16/19 06:00 6.3 91 7 14 W - 281
02/16/19 05:00 5.8 91 3 11 SW - 241
02/16/19 04:00 5.6 91 5 13 SW - 223
02/16/19 03:00 6.4 91 10 17 SW - 230
02/16/19 02:00 6.9 92 11 18 W - 250
02/16/19 01:00 8.2 92 10 18 SW - 234
02/16/19 00:00 8.6 92 10 15 SW - 215
02/15/19 23:00 9.3 92 10 20 SW - 212
02/15/19 22:00 9.8 93 15 25 SW - 208
02/15/19 21:00 12.0 94 14 27 S - 161
02/15/19 20:00 13.8 94 17 28 S - 199
02/15/19 19:00 14.9 95 17 30 S - 201
02/15/19 18:00 15.3 95 14 28 SW - 205
02/15/19 17:00 16.3 95 19 36 SW - 206
02/15/19 16:00 16.4 95 18 37 SW - 205
02/15/19 15:00 16.3 95 20 34 SW - 205
02/15/19 14:00 16.6 95 18 29 SW - 205
02/15/19 13:00 16.8 95 18 31 S - 191
02/15/19 12:00 16.0 95 18 36 S - 187
02/15/19 11:00 15.5 95 17 30 S - 185
02/15/19 10:00 15.1 94 18 35 S - 199
02/15/19 09:00 15.4 95 19 32 S - 190
02/15/19 08:00 17.2 95 20 35 S - 202
02/15/19 07:00 18.5 96 21 36 SW - 220
02/15/19 06:00 19.6 96 14 32 SW - 211
02/15/19 05:00 20.8 96 14 21 SW - 215
02/15/19 04:00 22.4 97 11 21 SW - 205
02/15/19 03:00 22.9 97 13 24 S - 188
02/15/19 02:00 23.4 97 10 14 S - 174
02/15/19 01:00 23.2 97 11 16 S - 177
02/15/19 00:00 23.4 97 11 16 S - 167
02/14/19 23:00 23.4 97 14 21 S - 168
02/14/19 22:00 23.4 97 18 24 S - 178
02/14/19 21:00 23.0 97 19 26 S - 170
02/14/19 20:00 22.7 97 18 26 S - 175
02/14/19 19:00 22.4 97 19 27 S - 184
02/14/19 18:00 22.4 97 18 26 S - 167
02/14/19 17:00 22.5 97 16 24 S - 166
02/14/19 16:00 22.4 97 17 23 S - 178
02/14/19 15:00 22.1 96 17 25 S - 160
02/14/19 14:00 21.2 96 16 24 SE - 153
02/14/19 13:00 21.2 96 13 24 SE - 156
02/14/19 12:00 20.1 95 13 18 S - 170
02/14/19 11:00 18.4 95 14 20 S - 184
02/14/19 10:00 15.3 95 12 17 S - 173
02/14/19 09:00 14.1 94 9 13 SE - 156
02/14/19 08:00 13.6 94 9 19 S - 194
02/14/19 07:00 14.1 94 12 22 SW - 247
02/14/19 06:00 14.4 94 9 21 SW - 219
02/14/19 05:00 15.0 94 8 21 SW - 232